Time;durP1;ratioP1;P1;durP2;ratioP2;P2;SDS_P1;SDS_P2;PMS_P1;PMS_P2;Temp;Humidity;BMP_temperature;BMP_pressure;BME280_temperature;BME280_humidity;BME280_pressure;Samples;Min_cycle;Max_cycle;Signal;HPM_P1;HPM_P2
2021/09/03 00:01:13;;;;;;;9.43;4.43;;;;;;;18.32;47.27;99238.66;5074889;28;20040;-92
2021/09/03 00:03:41;;;;;;;7.22;3.97;;;;;;;18.31;47.67;99244.16;5075664;28;20477;-93
2021/09/03 00:06:07;;;;;;;8.00;4.60;;;;;;;18.25;47.56;99243.50;5073421;28;20102;-94
2021/09/03 00:08:32;;;;;;;7.35;4.43;;;;;;;18.27;48.07;99252.34;5074901;28;20052;-93
2021/09/03 00:10:58;;;;;;;7.20;4.32;;;;;;;18.21;47.69;99241.91;5074781;28;20040;-93
2021/09/03 00:13:26;;;;;;;8.20;4.47;;;;;;;18.25;47.83;99242.63;5074959;28;20036;-92
2021/09/03 00:15:53;;;;;;;8.63;4.82;;;;;;;18.26;47.20;99241.69;5072755;28;20044;-91
2021/09/03 00:18:19;;;;;;;7.30;4.50;;;;;;;18.19;46.80;99222.25;5074513;28;20041;-94
2021/09/03 00:20:46;;;;;;;7.78;4.50;;;;;;;18.24;46.27;99220.22;5074365;28;20033;-92
2021/09/03 00:23:12;;;;;;;7.70;4.38;;;;;;;18.29;45.83;99219.97;5074975;28;20047;-92
2021/09/03 00:25:39;;;;;;;6.65;4.40;;;;;;;18.40;45.95;99224.81;5074750;28;20512;-92
2021/09/03 00:28:08;;;;;;;7.97;4.20;;;;;;;18.16;46.75;99206.28;5073636;28;20490;-91
2021/09/03 00:30:33;;;;;;;7.97;4.50;;;;;;;17.94;47.24;99181.41;5073292;28;20041;-94
2021/09/03 00:32:59;;;;;;;6.82;4.40;;;;;;;18.07;47.16;99204.06;5073018;28;20052;-91
2021/09/03 00:35:28;;;;;;;8.55;4.68;;;;;;;18.01;46.39;99199.84;5074344;28;20143;-92
2021/09/03 00:37:55;;;;;;;10.63;5.00;;;;;;;18.13;45.60;99198.38;5074608;28;20075;-93
2021/09/03 00:40:21;;;;;;;7.40;4.70;;;;;;;18.14;45.88;99192.03;5074639;28;20367;-91
2021/09/03 00:42:47;;;;;;;8.40;4.60;;;;;;;17.99;46.95;99188.28;5074008;28;20139;-92
2021/09/03 00:45:13;;;;;;;8.85;4.45;;;;;;;17.94;46.16;99195.75;5073030;28;20036;-93
2021/09/03 00:47:39;;;;;;;8.30;5.18;;;;;;;17.97;46.12;99175.88;5073797;28;20044;-94
2021/09/03 00:50:06;;;;;;;8.27;4.75;;;;;;;17.97;46.18;99186.63;5074596;28;20039;-92
2021/09/03 00:52:32;;;;;;;8.85;4.80;;;;;;;17.95;46.08;99170.56;5074094;28;20048;-93
2021/09/03 00:55:00;;;;;;;7.10;4.72;;;;;;;17.96;46.04;99185.78;5074329;28;20128;-94
2021/09/03 00:57:26;;;;;;;6.93;4.30;;;;;;;17.90;46.37;99188.78;5075085;28;20414;-90
2021/09/03 00:59:54;;;;;;;7.05;4.50;;;;;;;17.95;46.30;99200.16;5074557;28;20044;-93
2021/09/03 01:02:19;;;;;;;8.07;4.05;;;;;;;17.90;46.36;99187.91;5073712;28;20053;-92
2021/09/03 01:04:45;;;;;;;7.10;4.40;;;;;;;17.91;46.57;99195.00;5074015;28;20071;-94
2021/09/03 01:07:11;;;;;;;6.43;4.40;;;;;;;17.92;46.41;99205.72;5073707;28;20036;-92
2021/09/03 01:09:37;;;;;;;8.15;4.20;;;;;;;17.86;46.14;99189.88;5073236;28;20090;-92
2021/09/03 01:12:05;;;;;;;7.75;4.15;;;;;;;17.84;46.11;99189.94;5073571;28;20032;-93
2021/09/03 01:14:31;;;;;;;8.10;4.25;;;;;;;17.72;46.87;99189.63;5073118;28;20051;-93
2021/09/03 01:16:57;;;;;;;13.70;5.18;;;;;;;17.86;46.27;99204.19;5072261;28;20485;-93
2021/09/03 01:19:23;;;;;;;7.43;4.00;;;;;;;17.89;46.52;99213.94;5072966;28;20044;-92
2021/09/03 01:21:52;;;;;;;7.72;4.55;;;;;;;17.77;46.40;99193.00;5073667;28;20076;-91
2021/09/03 01:24:20;;;;;;;6.60;4.10;;;;;;;17.78;46.04;99190.22;5073588;28;20039;-92
2021/09/03 01:26:46;;;;;;;8.60;4.70;;;;;;;17.79;46.36;99194.66;5073910;28;20072;-93
2021/09/03 01:29:13;;;;;;;8.18;4.20;;;;;;;17.92;46.00;99213.78;5074225;28;20505;-93
2021/09/03 01:31:42;;;;;;;6.85;4.35;;;;;;;17.91;46.08;99209.31;5071082;28;20494;-94
2021/09/03 01:34:08;;;;;;;7.10;4.55;;;;;;;17.91;46.10;99205.78;5073362;28;20129;-93
2021/09/03 01:36:33;;;;;;;8.73;4.80;;;;;;;17.83;46.40;99215.09;5073633;28;20454;-92
2021/09/03 01:39:01;;;;;;;7.68;4.45;;;;;;;17.86;46.32;99206.00;5073172;28;20040;-92
2021/09/03 01:41:27;;;;;;;8.38;4.57;;;;;;;17.82;46.65;99210.66;5073483;28;20045;-92
2021/09/03 01:43:53;;;;;;;7.55;4.70;;;;;;;17.91;46.45;99211.16;5071423;28;20043;-92
2021/09/03 01:46:20;;;;;;;7.38;4.43;;;;;;;17.88;46.09;99200.56;5072520;28;20067;-91
2021/09/03 01:48:46;;;;;;;8.45;4.68;;;;;;;17.96;46.16;99215.38;5074037;28;20049;-92
2021/09/03 01:51:12;;;;;;;7.05;4.30;;;;;;;17.96;46.04;99215.38;5073700;28;20041;-92
2021/09/03 01:53:38;;;;;;;7.03;4.60;;;;;;;17.97;46.12;99218.94;5073685;28;20037;-93
2021/09/03 01:56:06;;;;;;;6.82;4.45;;;;;;;17.94;46.04;99213.72;5073423;28;20500;-93
2021/09/03 01:58:32;;;;;;;8.93;4.93;;;;;;;17.89;46.57;99213.06;5073229;28;20485;-92
2021/09/03 02:00:58;;;;;;;8.93;4.60;;;;;;;17.75;47.09;99211.03;5071888;28;20044;-92
2021/09/03 02:03:26;;;;;;;7.53;4.60;;;;;;;17.73;47.31;99207.53;5073662;28;20036;-93
2021/09/03 02:05:52;;;;;;;8.18;4.85;;;;;;;17.80;46.85;99211.66;5073897;28;20468;-92
2021/09/03 02:08:20;;;;;;;7.25;4.18;;;;;;;17.79;47.26;99213.47;5073644;28;20064;-92
2021/09/03 02:10:46;;;;;;;7.35;4.43;;;;;;;17.65;47.19;99194.44;5074151;28;20040;-91
2021/09/03 02:13:13;;;;;;;8.90;4.47;;;;;;;17.67;47.04;99197.94;5073775;28;20051;-92
2021/09/03 02:15:39;;;;;;;8.23;4.95;;;;;;;17.71;46.88;99204.91;5072024;28;20076;-93
2021/09/03 02:18:05;;;;;;;8.30;4.40;;;;;;;17.70;46.88;99211.25;5073169;28;20099;-93
2021/09/03 02:20:31;;;;;;;7.55;4.60;;;;;;;17.66;46.75;99185.44;5075030;28;20033;-93
2021/09/03 02:22:56;;;;;;;9.52;4.78;;;;;;;17.57;46.80;99176.03;5077410;28;20086;-90
2021/09/03 02:25:22;;;;;;;5.90;4.47;;;;;;;17.56;46.74;99166.19;5076934;28;20111;-91
2021/09/03 02:27:48;;;;;;;8.02;4.25;;;;;;;17.53;46.86;99171.75;5076951;28;20047;-94
2021/09/03 02:30:15;;;;;;;10.23;4.65;;;;;;;17.58;46.11;99171.50;5075532;28;20049;-92
2021/09/03 02:32:41;;;;;;;6.53;4.05;;;;;;;17.63;46.12;99158.69;5076831;28;20044;-93
2021/09/03 02:35:07;;;;;;;7.18;4.78;;;;;;;17.50;46.74;99163.84;5076938;28;20041;-92
2021/09/03 02:37:33;;;;;;;9.48;4.30;;;;;;;17.42;46.55;99160.66;5077534;28;20095;-93
2021/09/03 02:39:59;;;;;;;7.55;4.28;;;;;;;17.48;47.13;99170.22;5076354;28;20521;-93
2021/09/03 02:42:25;;;;;;;8.25;4.95;;;;;;;17.43;47.13;99165.91;5076874;28;20047;-94
2021/09/03 02:44:51;;;;;;;7.60;4.50;;;;;;;17.38;47.00;99153.66;5076668;28;20486;-91
2021/09/03 02:47:18;;;;;;;8.30;4.60;;;;;;;17.31;47.63;99163.84;5075176;28;20051;-91
2021/09/03 02:49:44;;;;;;;7.85;4.78;;;;;;;17.28;48.17;99161.28;5076767;28;20044;-94
2021/09/03 02:52:10;;;;;;;8.02;4.30;;;;;;;17.29;48.13;99159.50;5076249;28;20067;-93
2021/09/03 02:54:37;;;;;;;7.30;4.65;;;;;;;17.14;48.37;99150.34;5076831;28;20132;-91
2021/09/03 02:57:03;;;;;;;7.55;4.20;;;;;;;17.24;48.12;99154.34;5076215;28;20112;-92
2021/09/03 02:59:29;;;;;;;9.18;5.25;;;;;;;17.23;48.30;99160.66;5076586;28;20040;-94
2021/09/03 03:01:55;;;;;;;8.13;4.82;;;;;;;17.24;48.11;99152.53;5074555;28;20043;-92
2021/09/03 03:04:22;;;;;;;7.03;4.50;;;;;;;17.18;48.60;99146.56;5076381;28;20040;-93
2021/09/03 03:06:48;;;;;;;8.15;4.38;;;;;;;17.23;48.74;99152.59;5074506;28;20385;-92
2021/09/03 03:09:16;;;;;;;6.88;4.47;;;;;;;17.21;49.41;99151.78;5075968;28;20045;-92
2021/09/03 03:11:42;;;;;;;10.10;4.47;;;;;;;17.28;49.55;99160.44;5075059;28;20131;-92
2021/09/03 03:17:08;;;;;;;8.98;5.15;;;;;;;17.19;50.06;99146.47;5091003;27;20354;-92
2021/09/03 03:19:34;;;;;;;8.35;4.88;;;;;;;17.20;49.97;99144.69;5091533;28;20040;-92
2021/09/03 03:22:00;;;;;;;7.63;4.97;;;;;;;17.22;49.91;99142.81;5089666;28;20589;-93
2021/09/03 03:24:26;;;;;;;7.53;4.53;;;;;;;17.12;49.87;99133.44;5090608;28;20064;-92
2021/09/03 03:26:52;;;;;;;7.20;4.78;;;;;;;17.16;49.71;99137.72;5091412;28;20040;-93
2021/09/03 03:29:18;;;;;;;8.07;4.68;;;;;;;17.17;49.87;99145.69;5090462;28;20040;-93
2021/09/03 03:31:43;;;;;;;7.38;4.45;;;;;;;17.13;50.08;99133.38;5090343;28;20048;-92
2021/09/03 03:34:11;;;;;;;7.63;4.82;;;;;;;17.21;50.37;99141.91;5091792;28;20126;-91
2021/09/03 03:36:37;;;;;;;7.50;4.90;;;;;;;17.22;50.15;99143.66;5091325;28;20037;-93
2021/09/03 03:39:03;;;;;;;7.70;5.13;;;;;;;17.30;50.11;99140.59;5091100;28;20048;-93
2021/09/03 03:41:29;;;;;;;9.77;5.03;;;;;;;17.24;49.82;99125.66;5091300;28;20622;-91
2021/09/03 03:43:54;;;;;;;9.18;5.50;;;;;;;17.41;49.77;99134.69;5091317;28;20041;-94
2021/09/03 03:46:20;;;;;;;8.23;4.80;;;;;;;17.33;49.96;99134.22;5089788;28;20463;-95
2021/09/03 03:48:46;;;;;;;7.90;5.28;;;;;;;17.29;49.72;99129.94;5091035;28;20070;-94
2021/09/03 03:51:15;;;;;;;7.75;5.22;;;;;;;17.27;49.46;99121.06;5091280;28;20064;-93
2021/09/03 03:53:41;;;;;;;7.30;5.10;;;;;;;17.20;49.92;99123.19;5091056;28;20033;-92
2021/09/03 03:56:07;;;;;;;8.18;5.07;;;;;;;17.29;50.04;99136.16;5091009;28;20393;-93
2021/09/03 03:58:33;;;;;;;7.50;5.05;;;;;;;17.19;50.64;99126.81;5091008;28;20048;-93
2021/09/03 04:00:59;;;;;;;8.02;5.50;;;;;;;17.20;50.57;99132.13;5089210;28;20480;-90
2021/09/03 04:03:25;;;;;;;7.88;5.10;;;;;;;17.12;50.73;99125.38;5086761;28;20035;-92
2021/09/03 04:05:51;;;;;;;8.48;5.10;;;;;;;17.12;50.71;99130.75;5090562;28;20067;-93
2021/09/03 04:08:18;;;;;;;7.80;5.25;;;;;;;17.14;50.71;99128.84;5090473;28;20040;-91
2021/09/03 04:10:44;;;;;;;8.35;5.15;;;;;;;17.16;50.80;99126.97;5091016;28;20040;-91
2021/09/03 04:13:10;;;;;;;8.70;4.82;;;;;;;17.08;51.13;99121.09;5090565;28;20048;-92
2021/09/03 04:15:35;;;;;;;7.40;4.72;;;;;;;17.09;51.30;99115.66;5089151;28;20127;-93
2021/09/03 04:18:04;;;;;;;8.27;4.45;;;;;;;17.08;51.34;99110.34;5090750;28;20044;-91
2021/09/03 04:20:33;;;;;;;8.63;4.93;;;;;;;17.13;51.27;99111.88;5090695;28;20047;-93
2021/09/03 04:22:58;;;;;;;9.80;5.22;;;;;;;17.07;51.43;99108.56;5089985;28;20375;-93
2021/09/03 04:25:26;;;;;;;8.50;5.47;;;;;;;16.99;51.65;99117.88;5090933;28;20089;-93
2021/09/03 04:27:52;;;;;;;8.40;5.07;;;;;;;16.86;52.20;99118.56;5079878;28;20063;-92
2021/09/03 04:30:18;;;;;;;8.35;5.65;;;;;;;16.75;52.55;99124.41;5076810;28;20040;-93
2021/09/03 04:32:43;;;;;;;10.48;5.60;;;;;;;16.75;52.33;99114.50;5078343;28;20044;-93
2021/09/03 04:35:10;;;;;;;10.73;5.25;;;;;;;16.69;52.84;99117.47;5077702;28;20040;-92
2021/09/03 04:37:39;;;;;;;8.55;5.10;;;;;;;16.64;52.88;99116.84;5077378;28;20394;-92
2021/09/03 04:40:06;;;;;;;9.52;5.43;;;;;;;16.60;52.89;99107.19;5076727;28;20054;-91
2021/09/03 04:42:34;;;;;;;7.95;4.97;;;;;;;16.58;52.81;99106.38;5077861;28;20490;-93
2021/09/03 04:45:00;;;;;;;9.25;5.30;;;;;;;16.72;52.78;99135.25;5077276;28;20516;-91
2021/09/03 04:47:25;;;;;;;9.60;5.05;;;;;;;16.69;52.80;99124.66;5077964;28;20040;-93
2021/09/03 04:49:51;;;;;;;10.73;5.60;;;;;;;16.64;52.89;99120.38;5079477;28;20032;-92
2021/09/03 04:52:17;;;;;;;8.48;4.93;;;;;;;16.66;54.24;99139.13;5079436;28;20044;-91
2021/09/03 04:54:43;;;;;;;11.32;5.63;;;;;;;16.39;55.37;99138.53;5076831;28;20040;-94
2021/09/03 04:57:09;;;;;;;12.38;5.88;;;;;;;16.17;56.63;99152.91;5078010;28;20055;-93
2021/09/03 04:59:36;;;;;;;14.93;6.03;;;;;;;15.93;57.48;99143.25;5076975;28;20071;-93
2021/09/03 05:02:02;;;;;;;8.63;5.28;;;;;;;15.86;58.13;99160.56;5078205;28;20120;-92
2021/09/03 05:04:28;;;;;;;10.75;6.28;;;;;;;15.69;59.20;99159.41;5077276;28;20036;-93
2021/09/03 05:06:54;;;;;;;11.68;5.80;;;;;;;15.55;59.26;99149.28;5077330;28;20127;-95
2021/09/03 05:09:20;;;;;;;12.13;5.78;;;;;;;15.47;59.89;99150.53;5077641;28;20048;-92
2021/09/03 05:11:45;;;;;;;11.15;5.97;;;;;;;15.23;60.40;99129.16;5077460;28;20033;-92
2021/09/03 05:14:15;;;;;;;10.10;5.55;;;;;;;15.19;60.41;99125.72;5078217;28;20044;-93
2021/09/03 05:16:44;;;;;;;11.57;5.57;;;;;;;15.26;61.32;99147.75;5077201;28;20115;-94
2021/09/03 05:19:12;;;;;;;11.68;5.88;;;;;;;15.12;61.77;99139.44;5078181;28;20033;-94
2021/09/03 05:21:37;;;;;;;14.07;5.90;;;;;;;15.21;62.96;99152.44;5075999;28;20041;-94
2021/09/03 05:24:04;;;;;;;9.80;6.00;;;;;;;15.22;62.51;99145.28;5075970;28;20452;-93
2021/09/03 05:26:30;;;;;;;10.30;5.57;;;;;;;15.32;61.91;99174.31;5074695;28;20037;-94
2021/09/03 05:28:55;;;;;;;10.73;5.28;;;;;;;15.34;61.64;99166.22;5076114;28;20052;-93
2021/09/03 05:31:21;;;;;;;12.75;6.32;;;;;;;15.34;61.62;99160.88;5076237;28;20048;-93
2021/09/03 05:33:49;;;;;;;14.48;6.20;;;;;;;15.34;61.23;99161.72;5076831;28;20079;-94
2021/09/03 05:36:15;;;;;;;9.80;5.75;;;;;;;15.39;60.82;99146.31;5076713;28;20120;-93
2021/09/03 05:38:40;;;;;;;12.18;7.22;;;;;;;15.55;61.15;99170.72;5075815;28;20112;-91
2021/09/03 05:41:06;;;;;;;11.57;6.25;;;;;;;15.61;61.06;99164.22;5076986;28;20044;-94
2021/09/03 05:43:32;;;;;;;12.15;6.00;;;;;;;15.69;61.12;99161.22;5075496;28;20040;-93
2021/09/03 05:45:58;;;;;;;15.80;5.95;;;;;;;15.84;60.58;99171.34;5074761;28;20052;-93
2021/09/03 05:48:24;;;;;;;13.07;6.38;;;;;;;15.98;59.73;99179.69;5074382;28;20569;-92
2021/09/03 05:50:51;;;;;;;12.50;6.38;;;;;;;16.11;59.16;99185.41;5074387;28;20036;-92
2021/09/03 05:53:17;;;;;;;9.82;5.80;;;;;;;16.14;59.52;99173.66;5075737;28;20040;-92
2021/09/03 05:55:43;;;;;;;13.15;6.22;;;;;;;16.25;59.62;99178.56;5076929;28;20043;-93
2021/09/03 05:58:09;;;;;;;11.52;5.72;;;;;;;16.36;60.09;99173.59;5076275;28;20037;-92
2021/09/03 06:00:34;;;;;;;12.40;6.53;;;;;;;16.37;60.03;99159.22;5076166;28;20044;-92
2021/09/03 06:03:00;;;;;;;13.20;6.30;;;;;;;16.54;58.97;99163.84;5078700;28;20048;-92
2021/09/03 06:05:26;;;;;;;11.02;6.10;;;;;;;16.69;58.83;99154.22;5076647;28;20103;-93
2021/09/03 06:07:54;;;;;;;11.15;6.50;;;;;;;16.80;59.13;99151.94;5080220;28;20104;-93
2021/09/03 06:10:19;;;;;;;11.60;5.93;;;;;;;17.02;59.40;99160.75;5074934;28;20037;-92
2021/09/03 06:12:45;;;;;;;11.43;5.93;;;;;;;17.35;58.36;99169.94;5075237;28;20093;-93
2021/09/03 06:15:11;;;;;;;8.85;5.28;;;;;;;17.64;57.94;99171.22;5074581;28;20048;-93
2021/09/03 06:17:41;;;;;;;9.20;5.20;;;;;;;17.86;55.21;99165.66;5073679;28;20048;-93
2021/09/03 06:20:09;;;;;;;9.48;5.53;;;;;;;18.09;55.04;99164.50;5075765;28;20044;-92
2021/09/03 06:22:35;;;;;;;10.75;5.82;;;;;;;18.36;54.26;99174.75;5074787;28;20040;-93
2021/09/03 06:25:03;;;;;;;14.15;6.30;;;;;;;18.44;53.95;99151.00;5076558;28;20104;-94
2021/09/03 06:27:30;;;;;;;9.80;5.63;;;;;;;18.66;53.45;99161.50;5077511;28;20033;-94
2021/09/03 06:29:56;;;;;;;10.18;5.88;;;;;;;18.86;53.53;99165.81;5076993;28;20386;-95
2021/09/03 06:32:24;;;;;;;10.05;5.93;;;;;;;18.88;52.04;99151.31;5074839;28;20052;-95
2021/09/03 06:34:52;;;;;;;8.40;5.53;;;;;;;19.07;52.18;99147.59;5074940;28;20032;-93
2021/09/03 06:37:19;;;;;;;12.00;6.60;;;;;;;19.18;51.47;99136.22;5074943;28;20053;-93
2021/09/03 06:39:46;;;;;;;9.80;6.15;;;;;;;19.47;50.30;99151.63;5073919;28;20075;-94
2021/09/03 06:42:15;;;;;;;14.13;6.75;;;;;;;19.59;49.22;99141.94;5074234;28;20588;-93
2021/09/03 06:44:41;;;;;;;12.85;6.95;;;;;;;19.72;49.05;99144.81;5075277;28;20466;-91
2021/09/03 06:47:08;;;;;;;11.25;6.07;;;;;;;19.67;49.73;99139.66;5074947;28;20049;-92
2021/09/03 06:49:34;;;;;;;9.32;5.38;;;;;;;19.83;48.33;99149.59;5073994;28;20055;-94
2021/09/03 06:52:00;;;;;;;9.40;5.90;;;;;;;19.60;49.34;99145.50;5077156;28;20048;-94
2021/09/03 06:54:31;;;;;;;13.13;7.50;;;;;;;19.81;49.30;99154.19;5075899;28;20148;-93
2021/09/03 06:56:57;;;;;;;10.15;5.93;;;;;;;19.75;49.20;99136.53;5077108;28;20108;-93
2021/09/03 06:59:24;;;;;;;9.70;6.07;;;;;;;20.10;49.37;99155.16;5077707;28;20044;-93
2021/09/03 07:01:50;;;;;;;8.95;5.68;;;;;;;20.16;48.85;99146.69;5077774;28;20044;-93
2021/09/03 07:04:16;;;;;;;7.65;5.30;;;;;;;20.10;48.40;99152.47;5075630;28;20036;-94
2021/09/03 07:06:42;;;;;;;8.52;5.18;;;;;;;20.17;48.93;99134.94;5078420;28;20059;-93
2021/09/03 07:09:07;;;;;;;7.68;5.32;;;;;;;20.42;48.28;99141.53;5077899;28;20044;-92
2021/09/03 07:11:35;;;;;;;9.13;5.15;;;;;;;20.79;47.78;99142.84;5078802;28;20036;-93
2021/09/03 07:14:04;;;;;;;7.70;5.60;;;;;;;20.79;46.17;99129.31;5076326;28;20045;-92
2021/09/03 07:16:33;;;;;;;12.20;5.80;;;;;;;20.61;47.61;99146.72;5076051;28;20127;-93
2021/09/03 07:22:04;;;;;;;8.98;4.80;;;;;;;20.92;46.88;99146.50;5116422;27;20381;-91
2021/09/03 07:24:31;;;;;;;7.03;4.97;;;;;;;21.16;46.10;99161.25;5114256;28;20065;-92
2021/09/03 07:27:00;;;;;;;10.32;5.72;;;;;;;21.20;45.54;99135.75;5113099;28;20453;-92
2021/09/03 07:29:26;;;;;;;11.70;6.32;;;;;;;21.16;45.64;99129.66;5112280;28;20032;-91
2021/09/03 07:31:53;;;;;;;9.18;5.55;;;;;;;21.15;45.90;99136.06;5112112;28;20149;-93
2021/09/03 07:34:19;;;;;;;9.32;5.55;;;;;;;21.21;45.33;99151.00;5112722;28;20075;-91
2021/09/03 07:36:45;;;;;;;9.18;5.55;;;;;;;21.29;45.58;99156.78;5113115;28;20421;-93
2021/09/03 07:39:17;;;;;;;9.13;5.70;;;;;;;21.39;45.62;99144.41;5112983;28;20051;-93
2021/09/03 07:41:43;;;;;;;11.75;5.43;;;;;;;21.58;45.12;99162.16;5113631;28;20062;-92
2021/09/03 07:44:09;;;;;;;9.02;5.63;;;;;;;21.69;44.82;99167.75;5113840;28;20401;-93
2021/09/03 07:46:35;;;;;;;8.88;5.00;;;;;;;21.87;45.00;99165.63;5113860;28;20067;-91
2021/09/03 07:49:03;;;;;;;8.15;5.32;;;;;;;22.01;44.30;99180.94;5114449;28;20063;-91
2021/09/03 07:51:30;;;;;;;8.30;5.50;;;;;;;21.54;44.55;99167.78;5112749;28;20065;-91
2021/09/03 07:53:57;;;;;;;9.10;5.45;;;;;;;21.79;44.11;99152.59;5113097;28;20036;-91
2021/09/03 07:56:24;;;;;;;9.57;5.03;;;;;;;22.02;42.77;99163.75;5110304;28;20032;-92
2021/09/03 07:58:50;;;;;;;8.93;5.40;;;;;;;21.74;44.12;99160.19;5109127;28;20904;-90
2021/09/03 08:01:16;;;;;;;8.60;5.45;;;;;;;21.78;44.49;99144.59;5108172;28;20044;-92
2021/09/03 08:03:45;;;;;;;9.70;5.82;;;;;;;21.86;44.39;99170.19;5111331;28;20040;-92
2021/09/03 08:06:11;;;;;;;9.80;6.00;;;;;;;22.01;44.14;99159.28;5109307;28;20060;-92
2021/09/03 08:08:40;;;;;;;11.18;5.88;;;;;;;21.90;43.28;99160.91;5110096;28;20060;-91
2021/09/03 08:11:07;;;;;;;10.48;5.85;;;;;;;21.88;43.46;99162.84;5109014;28;20663;-91
2021/09/03 08:13:34;;;;;;;8.82;5.82;;;;;;;22.05;43.88;99150.84;5110684;28;20040;-92
2021/09/03 08:16:02;;;;;;;8.85;5.40;;;;;;;22.48;42.37;99141.63;5107191;28;20032;-91
2021/09/03 08:18:28;;;;;;;8.40;5.80;;;;;;;22.50;42.12;99136.97;5107975;28;20094;-91
2021/09/03 08:20:54;;;;;;;9.10;5.72;;;;;;;22.43;42.66;99141.94;5109344;28;20044;-92
2021/09/03 08:23:20;;;;;;;9.18;5.72;;;;;;;22.27;42.83;99142.16;5109808;28;20065;-92
2021/09/03 08:25:46;;;;;;;7.95;5.47;;;;;;;22.59;41.93;99157.13;5109303;28;20050;-91
2021/09/03 08:28:11;;;;;;;8.40;5.40;;;;;;;22.48;42.35;99136.19;5109426;28;20060;-93
2021/09/03 08:30:39;;;;;;;9.20;5.35;;;;;;;22.58;41.59;99144.56;5105496;28;20039;-90
2021/09/03 08:33:05;;;;;;;8.05;5.38;;;;;;;22.90;41.30;99136.81;5096658;28;20432;-92
2021/09/03 08:35:31;;;;;;;8.85;5.80;;;;;;;23.15;39.42;99139.53;5096147;28;20037;-92
2021/09/03 08:37:57;;;;;;;9.38;5.20;;;;;;;23.29;40.65;99143.06;5098118;28;20039;-91
2021/09/03 08:40:22;;;;;;;8.98;5.35;;;;;;;23.31;40.67;99149.25;5096730;28;20040;-93
2021/09/03 08:42:49;;;;;;;8.48;5.35;;;;;;;23.20;39.29;99133.75;5096273;28;20489;-91
2021/09/03 08:45:15;;;;;;;7.88;5.20;;;;;;;23.02;41.06;99133.25;5094439;28;20397;-92
2021/09/03 08:47:44;;;;;;;7.43;5.18;;;;;;;22.83;39.99;99121.97;5095937;28;20040;-92
2021/09/03 08:50:13;;;;;;;8.05;5.55;;;;;;;22.54;41.30;99150.19;5095428;28;20036;-92
2021/09/03 08:52:43;;;;;;;7.75;5.00;;;;;;;23.05;40.84;99146.63;5095666;28;20111;-93
2021/09/03 08:55:09;;;;;;;9.52;5.53;;;;;;;23.25;39.35;99142.44;5092937;28;20132;-92
2021/09/03 08:57:35;;;;;;;8.98;5.40;;;;;;;23.40;40.37;99143.16;5095488;28;20044;-92
2021/09/03 09:00:13;;;;;;;9.00;5.28;;;;;;;23.70;39.02;99140.00;5095608;28;20032;-92
2021/09/03 09:02:57;;;;;;;7.40;4.90;;;;;;;23.91;38.37;99125.81;5096276;28;20367;-94
2021/09/03 09:05:53;;;;;;;10.32;5.80;;;;;;;23.93;38.34;99123.84;5096486;28;20094;-94
2021/09/03 09:08:20;;;;;;;8.52;5.60;;;;;;;23.52;38.75;99119.66;5097142;28;20064;-93
2021/09/03 09:10:49;;;;;;;8.25;5.10;;;;;;;23.89;38.01;99109.63;5096173;28;20068;-93
2021/09/03 09:13:17;;;;;;;11.70;5.32;;;;;;;24.07;37.61;99095.59;5095771;28;20463;-93
2021/09/03 09:15:55;;;;;;;7.78;5.22;;;;;;;24.17;38.17;99104.78;5095761;28;20097;-94
2021/09/03 09:18:36;;;;;;;8.23;4.88;;;;;;;24.43;36.62;99101.88;5095919;28;20489;-94
2021/09/03 09:21:10;;;;;;;9.93;5.38;;;;;;;24.56;35.53;99102.66;5096287;28;20127;-93
2021/09/03 09:23:40;;;;;;;7.75;5.30;;;;;;;24.42;35.26;99102.84;5096573;28;20119;-93
2021/09/03 09:26:07;;;;;;;7.55;4.63;;;;;;;24.57;36.01;99113.41;5096522;28;20089;-93
2021/09/03 09:28:34;;;;;;;6.57;4.50;;;;;;;24.69;35.12;99105.25;5096356;28;20036;-93
2021/09/03 09:31:00;;;;;;;7.38;4.88;;;;;;;24.84;34.26;99093.16;5095897;28;20040;-95
2021/09/03 09:33:26;;;;;;;7.70;4.68;;;;;;;25.19;33.67;99101.16;5096648;28;20040;-95
2021/09/03 09:35:55;;;;;;;10.30;5.13;;;;;;;25.12;34.63;99086.31;5096730;28;20094;-94
2021/09/03 09:38:23;;;;;;;12.00;4.95;;;;;;;25.18;31.93;99085.81;5097310;28;20063;-92
2021/09/03 09:40:51;;;;;;;8.00;4.85;;;;;;;24.77;33.33;99087.34;5096064;28;20044;-93
2021/09/03 09:43:28;;;;;;;5.93;3.80;;;;;;;25.07;29.37;99074.97;5095956;28;20040;-93
2021/09/03 09:46:17;;;;;;;8.07;4.50;;;;;;;25.46;30.03;99083.56;5105192;28;20052;-94
2021/09/03 09:49:00;;;;;;;9.02;4.30;;;;;;;25.69;31.04;99075.31;5096103;28;20044;-95
2021/09/03 09:51:30;;;;;;;7.97;4.97;;;;;;;24.99;32.50;99082.88;5096381;28;20496;-93
2021/09/03 09:54:02;;;;;;;6.53;4.40;;;;;;;24.99;31.76;99067.41;5097954;28;20048;-93
2021/09/03 09:56:34;;;;;;;6.70;4.25;;;;;;;25.23;31.38;99055.53;5093970;28;20036;-93
2021/09/03 09:59:04;;;;;;;7.65;4.53;;;;;;;25.50;30.62;99078.69;5095572;28;20036;-94
2021/09/03 10:01:32;;;;;;;8.07;4.05;;;;;;;25.07;27.46;99061.34;5094324;28;20050;-94
2021/09/03 10:04:04;;;;;;;10.00;4.18;;;;;;;25.29;28.43;99054.16;5095176;28;20047;-93
2021/09/03 10:06:32;;;;;;;8.75;4.50;;;;;;;24.94;29.21;99049.72;5101119;28;20122;-92
2021/09/03 10:08:59;;;;;;;8.85;3.88;;;;;;;25.39;29.67;99041.47;5116453;28;20043;-94
2021/09/03 10:11:25;;;;;;;6.85;4.35;;;;;;;25.37;30.38;99051.63;5096277;28;20048;-93
2021/09/03 10:13:53;;;;;;;8.00;4.68;;;;;;;25.70;30.28;99030.72;5098502;28;20047;-93
2021/09/03 10:16:20;;;;;;;7.75;4.38;;;;;;;25.88;29.43;99044.63;5097416;28;20048;-93
2021/09/03 10:18:49;;;;;;;7.00;4.07;;;;;;;25.80;28.32;99034.38;5097172;28;20093;-94
2021/09/03 10:21:15;;;;;;;5.65;3.65;;;;;;;25.97;28.48;99030.25;5096166;28;20279;-95
2021/09/03 10:24:02;;;;;;;6.85;4.25;;;;;;;26.17;26.44;99013.00;5097251;28;20436;-95
2021/09/03 10:26:29;;;;;;;7.15;3.90;;;;;;;26.22;25.15;99020.81;5091923;28;20067;-95
2021/09/03 10:29:23;;;;;;;7.93;4.30;;;;;;;26.17;25.44;99014.88;5097239;28;20074;-93
2021/09/03 10:32:14;;;;;;;6.97;4.18;;;;;;;26.07;26.52;99023.00;5097153;28;20040;-95
2021/09/03 10:37:52;;;;;;;7.65;4.18;;;;;;;26.23;25.24;99014.34;5127010;27;20375;-93
2021/09/03 10:40:39;;;;;;;6.20;3.90;;;;;;;26.05;25.84;99010.50;5092193;28;20047;-95
2021/09/03 10:43:06;;;;;;;6.68;3.92;;;;;;;25.85;27.76;99007.63;5092566;28;20131;-95
2021/09/03 10:45:38;;;;;;;6.90;3.95;;;;;;;25.78;27.46;99000.97;5093498;28;20072;-93
2021/09/03 10:51:10;;;;;;;6.22;3.90;;;;;;;25.95;26.83;99002.25;5105362;27;20368;-94
2021/09/03 10:53:37;;;;;;;5.78;3.88;;;;;;;26.02;25.29;98989.81;5073480;28;20387;-95
2021/09/03 10:56:10;;;;;;;6.97;4.43;;;;;;;25.54;26.90;98972.13;5074189;28;20048;-95
2021/09/03 10:58:46;;;;;;;8.30;3.97;;;;;;;25.51;26.97;98977.84;5073730;28;20037;-93
2021/09/03 11:01:37;;;;;;;7.07;4.28;;;;;;;25.44;27.49;98984.81;5070856;28;20068;-93
2021/09/03 11:07:12;;;;;;;6.20;3.97;;;;;;;25.86;26.76;98997.59;5147434;27;20845;-94
2021/09/03 11:09:42;;;;;;;6.03;3.75;;;;;;;25.78;26.74;98984.63;5121967;28;20044;-94
2021/09/03 11:12:09;;;;;;;6.95;4.40;;;;;;;26.00;26.66;99000.88;5121253;28;20055;-93
2021/09/03 11:14:36;;;;;;;6.87;4.20;;;;;;;26.06;27.19;98982.25;5122766;28;20039;-93
2021/09/03 11:17:06;;;;;;;7.60;4.68;;;;;;;25.80;27.47;98994.38;5119396;28;20048;-93
2021/09/03 11:19:33;;;;;;;9.70;4.65;;;;;;;25.73;28.78;98993.19;5122571;28;20039;-95
2021/09/03 11:22:04;;;;;;;7.00;4.45;;;;;;;25.62;28.07;98977.78;5130673;28;20428;-93
2021/09/03 11:24:34;;;;;;;6.68;4.20;;;;;;;25.89;27.85;98981.00;5122909;28;20044;-94
2021/09/03 11:27:04;;;;;;;6.88;4.35;;;;;;;26.01;27.46;98974.47;5124591;28;20043;-95
2021/09/03 11:29:32;;;;;;;8.88;4.90;;;;;;;25.95;28.01;98978.59;5119969;28;20071;-93
2021/09/03 11:32:07;;;;;;;7.43;4.30;;;;;;;25.81;28.55;98974.31;5123038;28;20069;-92
2021/09/03 11:34:41;;;;;;;7.88;4.30;;;;;;;26.18;30.03;98975.72;5121505;28;20039;-94
2021/09/03 11:37:07;;;;;;;6.15;4.07;;;;;;;26.39;29.00;98971.09;5120638;28;20036;-96
2021/09/03 11:39:36;;;;;;;7.80;4.50;;;;;;;26.63;29.59;98986.25;5126886;28;20122;-93
2021/09/03 11:42:05;;;;;;;6.50;4.30;;;;;;;26.29;28.97;98958.41;5132462;28;20047;-95
2021/09/03 11:44:31;;;;;;;7.38;4.47;;;;;;;26.26;28.97;98972.31;5125346;28;20044;-94
2021/09/03 11:46:58;;;;;;;7.25;4.18;;;;;;;26.01;29.16;98950.81;5129695;28;20133;-94
2021/09/03 11:49:24;;;;;;;7.47;5.03;;;;;;;25.78;29.10;98979.16;5127824;28;20148;-95